Time;durP1;ratioP1;P1;durP2;ratioP2;P2;SDS_P1;SDS_P2;PMS_P1;PMS_P2;Temp;Humidity;BMP_temperature;BMP_pressure;BME280_temperature;BME280_humidity;BME280_pressure;Samples;Min_cycle;Max_cycle;Signal;HPM_P1;HPM_P2
2023/09/01 00:00:03;;;;;;;8.23;6.83;;;;;;;;;;5007633;28;20427;-72
2023/09/01 00:02:29;;;;;;;6.80;6.20;;;;;;;;;;4998715;28;20818;-74
2023/09/01 00:04:55;;;;;;;9.23;7.47;;;;;;;;;;5008284;28;20436;-72
2023/09/01 00:07:21;;;;;;;9.97;8.47;;;;;;;;;;5004559;28;20460;-74
2023/09/01 00:09:47;;;;;;;8.23;7.57;;;;;;;;;;5012373;28;20443;-73
2023/09/01 00:12:13;;;;;;;8.27;7.43;;;;;;;;;;5020727;28;20471;-71
2023/09/01 00:14:39;;;;;;;8.07;7.17;;;;;;;;;;5008628;28;20446;-73
2023/09/01 00:17:05;;;;;;;8.30;7.47;;;;;;;;;;5009099;28;20451;-72
2023/09/01 00:19:31;;;;;;;9.57;8.77;;;;;;;;;;5014268;28;20440;-72
2023/09/01 00:21:57;;;;;;;9.10;8.23;;;;;;;;;;5015771;28;20612;-72
2023/09/01 00:24:23;;;;;;;9.30;8.40;;;;;;;;;;5008304;28;20424;-73
2023/09/01 00:26:49;;;;;;;12.30;9.50;;;;;;;;;;5019699;28;20450;-73
2023/09/01 00:29:15;;;;;;;11.57;10.47;;;;;;;;;;5008650;28;20431;-72
2023/09/01 00:31:41;;;;;;;12.50;10.83;;;;;;;;;;5014195;28;21341;-73
2023/09/01 00:34:07;;;;;;;20.03;11.30;;;;;;;;;;5006304;28;20423;-72
2023/09/01 00:36:33;;;;;;;11.80;10.73;;;;;;;;;;5012241;28;21146;-73
2023/09/01 00:38:59;;;;;;;11.43;10.43;;;;;;;;;;5006861;28;20500;-73
2023/09/01 00:41:25;;;;;;;12.10;10.87;;;;;;;;;;5009243;28;20442;-72
2023/09/01 00:43:51;;;;;;;10.47;9.70;;;;;;;;;;5006261;28;20423;-72
2023/09/01 00:46:17;;;;;;;11.90;10.03;;;;;;;;;;5011306;28;20446;-73
2023/09/01 00:48:43;;;;;;;9.27;8.23;;;;;;;;;;5005924;28;20447;-73
2023/09/01 00:51:09;;;;;;;9.47;7.90;;;;;;;;;;5005673;28;20542;-73
2023/09/01 00:53:36;;;;;;;10.20;7.90;;;;;;;;;;5006571;28;20454;-73
2023/09/01 00:56:03;;;;;;;8.13;7.53;;;;;;;;;;5013336;28;20430;-72
2023/09/01 00:58:29;;;;;;;7.10;6.70;;;;;;;;;;5007301;28;20849;-73
2023/09/01 01:00:58;;;;;;;6.63;6.33;;;;;;;;;;5006375;28;20473;-73
2023/09/01 01:03:24;;;;;;;7.73;7.03;;;;;;;;;;5006904;28;20439;-72
2023/09/01 01:05:59;;;;;;;5.97;5.67;;;;;;;;;;5001076;28;20427;-73
2023/09/01 01:08:36;;;;;;;5.43;4.93;;;;;;;;;;5009021;28;20661;-74
2023/09/01 01:11:06;;;;;;;6.93;6.43;;;;;;;;;;4992423;28;21012;-73
2023/09/01 01:16:36;;;;;;;7.97;7.63;;;;;;;;;;4996216;28;20438;-73
2023/09/01 01:19:04;;;;;;;8.60;7.80;;;;;;;;;;4999745;28;20447;-73
2023/09/01 01:21:33;;;;;;;8.13;7.50;;;;;;;;;;5000618;28;20445;-73
2023/09/01 01:24:00;;;;;;;9.53;8.70;;;;;;;;;;4990555;28;20424;-72
2023/09/01 01:26:26;;;;;;;9.73;8.93;;;;;;;;;;4996908;28;20532;-73
2023/09/01 01:28:52;;;;;;;9.97;8.83;;;;;;;;;;4992383;28;20777;-73
2023/09/01 01:31:18;;;;;;;8.80;7.97;;;;;;;;;;4998896;28;20482;-72
2023/09/01 01:33:49;;;;;;;9.13;8.37;;;;;;;;;;4993822;28;20756;-74
2023/09/01 01:36:15;;;;;;;9.97;9.00;;;;;;;;;;4996820;28;20424;-72
2023/09/01 01:38:42;;;;;;;9.20;8.50;;;;;;;;;;5001330;28;20408;-72
2023/09/01 01:41:10;;;;;;;10.60;8.67;;;;;;;;;;5002631;28;20815;-72
2023/09/01 01:43:37;;;;;;;8.67;7.70;;;;;;;;;;5002560;28;20444;-72
2023/09/01 01:46:04;;;;;;;9.13;8.40;;;;;;;;;;5003992;28;20451;-73
2023/09/01 01:48:29;;;;;;;8.33;7.73;;;;;;;;;;5001273;28;20463;-73
2023/09/01 01:50:56;;;;;;;10.57;7.80;;;;;;;;;;4998266;28;21128;-73
2023/09/01 01:53:22;;;;;;;7.33;6.83;;;;;;;;;;5006872;28;20435;-73
2023/09/01 01:55:49;;;;;;;7.90;7.33;;;;;;;;;;5008205;28;20444;-73
2023/09/01 01:58:15;;;;;;;8.53;7.83;;;;;;;;;;5005040;28;20798;-73
2023/09/01 02:00:41;;;;;;;11.07;7.93;;;;;;;;;;5007447;28;20455;-72
2023/09/01 02:03:07;;;;;;;7.60;6.90;;;;;;;;;;5001066;28;20540;-72
2023/09/01 02:05:33;;;;;;;11.13;7.33;;;;;;;;;;4999955;28;21010;-72
2023/09/01 02:07:59;;;;;;;7.43;6.90;;;;;;;;;;4991279;28;20805;-73
2023/09/01 02:10:25;;;;;;;7.30;6.80;;;;;;;;;;4995968;28;20471;-73
2023/09/01 02:12:51;;;;;;;6.67;6.27;;;;;;;;;;5002663;28;20980;-73
2023/09/01 02:15:17;;;;;;;6.63;6.13;;;;;;;;;;5005823;28;20454;-72
2023/09/01 02:17:43;;;;;;;7.50;6.80;;;;;;;;;;5011839;28;20483;-73
2023/09/01 02:20:19;;;;;;;7.27;6.57;;;;;;;;;;5005328;28;20443;-73
2023/09/01 02:22:47;;;;;;;6.80;6.20;;;;;;;;;;5003669;28;20786;-73
2023/09/01 02:25:13;;;;;;;7.50;6.70;;;;;;;;;;5012524;28;20463;-73
2023/09/01 02:27:40;;;;;;;7.63;6.93;;;;;;;;;;4998990;28;20527;-72
2023/09/01 02:30:08;;;;;;;7.87;7.13;;;;;;;;;;5012120;28;20435;-73
2023/09/01 02:32:34;;;;;;;7.33;6.83;;;;;;;;;;4998164;28;20470;-73
2023/09/01 02:35:00;;;;;;;8.47;5.43;;;;;;;;;;4996114;28;20468;-72
2023/09/01 02:37:27;;;;;;;7.23;6.70;;;;;;;;;;5008444;28;20485;-72
2023/09/01 02:39:52;;;;;;;6.50;5.83;;;;;;;;;;5000190;28;20505;-72
2023/09/01 02:42:18;;;;;;;7.53;6.40;;;;;;;;;;4998949;28;20452;-73
2023/09/01 02:44:46;;;;;;;6.47;5.83;;;;;;;;;;4992216;28;20444;-72
2023/09/01 02:47:12;;;;;;;6.43;6.03;;;;;;;;;;4999931;28;20422;-73
2023/09/01 02:49:38;;;;;;;6.43;5.93;;;;;;;;;;4991405;28;20447;-73
2023/09/01 02:52:05;;;;;;;6.20;5.70;;;;;;;;;;4995649;28;20476;-73
2023/09/01 02:54:31;;;;;;;6.27;5.77;;;;;;;;;;4997361;28;20455;-73
2023/09/01 02:56:57;;;;;;;6.33;5.80;;;;;;;;;;4994897;28;20419;-73
2023/09/01 02:59:23;;;;;;;7.17;5.57;;;;;;;;;;4994931;28;20513;-73
2023/09/01 03:01:49;;;;;;;5.33;5.10;;;;;;;;;;4991394;28;20427;-73
2023/09/01 03:04:15;;;;;;;6.67;6.10;;;;;;;;;;4995054;28;20978;-73
2023/09/01 03:06:41;;;;;;;6.57;5.93;;;;;;;;;;4994602;28;20415;-73
2023/09/01 03:09:10;;;;;;;5.87;5.43;;;;;;;;;;4990570;28;20523;-73
2023/09/01 03:11:36;;;;;;;9.37;6.13;;;;;;;;;;4993683;28;20467;-73
2023/09/01 03:14:04;;;;;;;7.23;5.77;;;;;;;;;;4996585;28;20795;-73
2023/09/01 03:16:30;;;;;;;6.53;6.00;;;;;;;;;;4996323;28;20408;-73
2023/09/01 03:18:59;;;;;;;5.80;5.40;;;;;;;;;;4994273;28;20446;-72
2023/09/01 03:21:30;;;;;;;5.80;5.20;;;;;;;;;;4997750;28;20435;-72
2023/09/01 03:23:57;;;;;;;7.50;6.47;;;;;;;;;;4992084;28;20425;-73
2023/09/01 03:26:23;;;;;;;10.37;5.60;;;;;;;;;;4990924;28;20479;-73
2023/09/01 03:28:49;;;;;;;5.87;5.40;;;;;;;;;;4992478;28;20444;-73
2023/09/01 03:31:15;;;;;;;6.57;6.10;;;;;;;;;;4992021;28;20472;-72
2023/09/01 03:33:42;;;;;;;5.43;4.90;;;;;;;;;;4992418;28;20434;-74
2023/09/01 03:36:08;;;;;;;6.30;5.83;;;;;;;;;;4996467;28;20530;-72
2023/09/01 03:38:35;;;;;;;5.57;5.27;;;;;;;;;;4994217;28;20432;-73
2023/09/01 03:41:04;;;;;;;8.77;5.87;;;;;;;;;;4992360;28;20452;-72
2023/09/01 03:43:30;;;;;;;5.70;5.40;;;;;;;;;;4991883;28;20935;-72
2023/09/01 03:45:57;;;;;;;5.67;5.37;;;;;;;;;;4994346;28;20448;-72
2023/09/01 03:48:23;;;;;;;7.73;6.50;;;;;;;;;;4995274;28;20532;-72
2023/09/01 03:51:08;;;;;;;6.97;6.13;;;;;;;;;;5000478;28;20578;-72
2023/09/01 03:53:34;;;;;;;5.90;5.43;;;;;;;;;;4994215;28;20486;-73
2023/09/01 03:56:01;;;;;;;5.30;4.97;;;;;;;;;;4994458;28;20530;-72
2023/09/01 03:58:27;;;;;;;6.90;6.23;;;;;;;;;;4990833;28;20483;-73
2023/09/01 04:00:53;;;;;;;5.83;5.43;;;;;;;;;;4995999;28;20839;-74
2023/09/01 04:03:19;;;;;;;6.40;5.23;;;;;;;;;;4990506;28;20443;-74
2023/09/01 04:05:45;;;;;;;5.93;5.57;;;;;;;;;;4991016;28;20443;-74
2023/09/01 04:08:11;;;;;;;7.50;5.70;;;;;;;;;;4992668;28;20454;-73
2023/09/01 04:10:39;;;;;;;5.93;5.40;;;;;;;;;;4986834;28;21381;-73
2023/09/01 04:13:05;;;;;;;6.80;6.30;;;;;;;;;;4999307;28;20431;-73
2023/09/01 04:15:31;;;;;;;7.33;5.93;;;;;;;;;;4994580;28;20544;-73
2023/09/01 04:17:57;;;;;;;6.70;5.47;;;;;;;;;;4993984;28;20538;-72
2023/09/01 04:20:23;;;;;;;6.90;6.40;;;;;;;;;;4993354;28;20470;-73
2023/09/01 04:22:49;;;;;;;6.63;6.13;;;;;;;;;;4991985;28;20440;-73
2023/09/01 04:25:15;;;;;;;6.40;5.80;;;;;;;;;;4993504;28;20479;-73
2023/09/01 04:27:41;;;;;;;6.30;5.70;;;;;;;;;;4993265;28;20458;-74
2023/09/01 04:30:07;;;;;;;6.00;5.60;;;;;;;;;;4995774;28;20451;-73
2023/09/01 04:32:33;;;;;;;5.73;5.30;;;;;;;;;;4989824;28;20451;-72
2023/09/01 04:35:00;;;;;;;5.80;5.40;;;;;;;;;;4992471;28;21357;-73
2023/09/01 04:37:26;;;;;;;12.30;10.10;;;;;;;;;;4997804;28;20478;-73
2023/09/01 04:39:52;;;;;;;6.70;5.50;;;;;;;;;;5004414;28;20905;-72
2023/09/01 04:42:18;;;;;;;5.57;5.30;;;;;;;;;;5000975;28;20808;-72
2023/09/01 04:44:44;;;;;;;5.43;5.10;;;;;;;;;;4997728;28;21245;-72
2023/09/01 04:47:10;;;;;;;6.47;5.97;;;;;;;;;;4992302;28;20514;-73
2023/09/01 04:49:36;;;;;;;5.80;5.40;;;;;;;;;;5004862;28;20496;-73
2023/09/01 04:52:02;;;;;;;7.80;6.07;;;;;;;;;;5004925;28;20474;-73
2023/09/01 04:54:28;;;;;;;5.50;5.00;;;;;;;;;;4999289;28;20525;-72
2023/09/01 04:56:56;;;;;;;5.83;5.63;;;;;;;;;;5007501;28;20444;-72
2023/09/01 04:59:22;;;;;;;5.37;4.87;;;;;;;;;;5001426;28;20449;-72
2023/09/01 05:01:49;;;;;;;9.40;5.67;;;;;;;;;;4989519;28;20424;-73
2023/09/01 05:04:15;;;;;;;6.37;5.87;;;;;;;;;;4989933;28;20443;-73
2023/09/01 05:06:41;;;;;;;5.53;5.23;;;;;;;;;;4992201;28;20428;-72
2023/09/01 05:09:07;;;;;;;8.40;6.20;;;;;;;;;;4992003;28;20453;-73
2023/09/01 05:11:33;;;;;;;5.70;5.30;;;;;;;;;;4999767;28;20463;-75
2023/09/01 05:13:59;;;;;;;5.23;4.93;;;;;;;;;;4993877;28;21008;-73
2023/09/01 05:16:25;;;;;;;5.90;5.57;;;;;;;;;;4993791;28;20439;-73
2023/09/01 05:18:51;;;;;;;5.70;5.30;;;;;;;;;;5004402;28;20438;-73
2023/09/01 05:21:17;;;;;;;5.73;5.33;;;;;;;;;;5004048;28;20435;-73
2023/09/01 05:23:43;;;;;;;6.07;5.53;;;;;;;;;;4999631;28;20437;-73
2023/09/01 05:26:09;;;;;;;5.83;5.17;;;;;;;;;;4996343;28;20464;-72
2023/09/01 05:28:35;;;;;;;4.83;4.63;;;;;;;;;;4997218;28;20681;-72
2023/09/01 05:31:02;;;;;;;5.30;4.83;;;;;;;;;;4999398;28;20471;-73
2023/09/01 05:33:28;;;;;;;5.50;5.00;;;;;;;;;;4997120;28;20470;-73
2023/09/01 05:35:54;;;;;;;4.83;4.63;;;;;;;;;;4992750;28;20456;-74
2023/09/01 05:38:20;;;;;;;5.70;5.30;;;;;;;;;;4997161;28;20440;-73
2023/09/01 05:40:55;;;;;;;4.70;4.60;;;;;;;;;;5005668;28;20527;-73
2023/09/01 05:43:21;;;;;;;5.20;4.80;;;;;;;;;;5005925;28;20504;-74
2023/09/01 05:45:47;;;;;;;5.97;5.30;;;;;;;;;;5003687;28;20590;-72
2023/09/01 05:48:13;;;;;;;11.83;6.80;;;;;;;;;;4998634;28;20476;-73
2023/09/01 05:50:42;;;;;;;5.60;5.17;;;;;;;;;;5007799;28;20467;-73
2023/09/01 05:53:09;;;;;;;5.23;4.67;;;;;;;;;;5011956;28;20490;-73
2023/09/01 05:55:36;;;;;;;5.20;5.00;;;;;;;;;;5011213;28;20441;-73
2023/09/01 05:58:02;;;;;;;4.77;4.37;;;;;;;;;;5012967;28;20526;-73
2023/09/01 06:00:28;;;;;;;5.13;4.67;;;;;;;;;;5011053;28;20428;-73
2023/09/01 06:02:54;;;;;;;4.57;4.40;;;;;;;;;;5010103;28;20658;-73
2023/09/01 06:05:21;;;;;;;4.43;4.23;;;;;;;;;;5005340;28;20778;-71
2023/09/01 06:07:48;;;;;;;4.80;4.50;;;;;;;;;;4991460;28;20517;-73
2023/09/01 06:10:15;;;;;;;4.77;4.43;;;;;;;;;;4993862;28;20513;-73
2023/09/01 06:12:41;;;;;;;4.23;4.00;;;;;;;;;;4997523;28;20431;-73
2023/09/01 06:15:08;;;;;;;4.47;4.13;;;;;;;;;;5002911;28;20423;-72
2023/09/01 06:17:34;;;;;;;4.57;4.33;;;;;;;;;;5002762;28;21110;-74
2023/09/01 06:20:00;;;;;;;5.97;5.40;;;;;;;;;;5000903;28;20450;-73
2023/09/01 06:22:26;;;;;;;5.23;4.40;;;;;;;;;;4997931;28;20447;-72
2023/09/01 06:24:53;;;;;;;4.93;4.50;;;;;;;;;;4994933;28;20451;-72
2023/09/01 06:27:19;;;;;;;4.03;3.87;;;;;;;;;;4997386;28;21057;-73
2023/09/01 06:29:45;;;;;;;4.47;4.03;;;;;;;;;;5005092;28;20470;-72
2023/09/01 06:32:11;;;;;;;4.23;3.97;;;;;;;;;;4998435;28;20520;-71
2023/09/01 06:34:40;;;;;;;3.70;3.60;;;;;;;;;;4995931;28;20466;-72
2023/09/01 06:37:06;;;;;;;4.13;4.03;;;;;;;;;;4996024;28;21379;-70
2023/09/01 06:39:32;;;;;;;3.77;3.67;;;;;;;;;;4998414;28;20525;-71
2023/09/01 06:41:58;;;;;;;3.63;3.47;;;;;;;;;;5000136;28;20924;-71
2023/09/01 06:44:25;;;;;;;3.97;3.77;;;;;;;;;;4999539;28;20513;-71
2023/09/01 06:46:51;;;;;;;3.77;3.50;;;;;;;;;;4995076;28;20711;-71
2023/09/01 06:49:17;;;;;;;3.10;3.00;;;;;;;;;;4993704;28;20960;-71
2023/09/01 06:51:43;;;;;;;2.73;2.70;;;;;;;;;;4992694;28;20471;-70
2023/09/01 06:54:09;;;;;;;3.40;3.20;;;;;;;;;;4993085;28;20451;-70
2023/09/01 06:56:35;;;;;;;3.00;2.73;;;;;;;;;;4994080;28;20467;-71
2023/09/01 06:59:01;;;;;;;3.27;3.27;;;;;;;;;;4995171;28;20506;-72
2023/09/01 07:01:27;;;;;;;3.30;3.00;;;;;;;;;;4995326;28;20444;-71
2023/09/01 07:03:54;;;;;;;3.60;3.40;;;;;;;;;;4994933;28;20479;-71
2023/09/01 07:06:20;;;;;;;3.10;2.90;;;;;;;;;;4991454;28;20451;-72
2023/09/01 07:08:46;;;;;;;2.83;2.73;;;;;;;;;;4993307;28;20455;-72
2023/09/01 07:11:14;;;;;;;3.90;3.20;;;;;;;;;;4992189;28;20463;-71
2023/09/01 07:13:40;;;;;;;6.90;3.37;;;;;;;;;;4986893;28;20431;-72
2023/09/01 07:16:09;;;;;;;3.07;2.97;;;;;;;;;;4991327;28;20432;-72
2023/09/01 07:18:36;;;;;;;3.60;3.07;;;;;;;;;;4985569;28;20483;-72
2023/09/01 07:21:02;;;;;;;2.97;2.90;;;;;;;;;;4983934;28;20521;-71
2023/09/01 07:23:28;;;;;;;8.03;2.73;;;;;;;;;;4985955;28;20448;-71
2023/09/01 07:25:55;;;;;;;2.57;2.37;;;;;;;;;;4986338;28;20587;-72
2023/09/01 07:28:21;;;;;;;2.60;2.50;;;;;;;;;;4986649;28;20462;-72
2023/09/01 07:30:47;;;;;;;2.20;2.10;;;;;;;;;;4991360;28;20466;-72
2023/09/01 07:33:13;;;;;;;2.67;2.67;;;;;;;;;;4989188;28;20439;-72
2023/09/01 07:35:44;;;;;;;3.00;2.80;;;;;;;;;;4996152;28;20798;-74
2023/09/01 07:38:10;;;;;;;2.87;2.77;;;;;;;;;;4989456;28;20492;-75
2023/09/01 07:40:36;;;;;;;2.43;2.10;;;;;;;;;;4990403;28;20957;-72
2023/09/01 07:43:02;;;;;;;1.60;1.50;;;;;;;;;;4986812;28;20443;-71
2023/09/01 07:45:28;;;;;;;1.80;1.80;;;;;;;;;;4987224;28;20452;-71
2023/09/01 07:47:54;;;;;;;2.97;2.10;;;;;;;;;;4985013;28;20530;-72
2023/09/01 07:50:23;;;;;;;2.67;2.43;;;;;;;;;;4987804;28;20468;-71
2023/09/01 07:52:50;;;;;;;1.63;1.53;;;;;;;;;;4991920;28;20478;-72
2023/09/01 07:55:16;;;;;;;2.13;2.00;;;;;;;;;;4994083;28;20459;-73
2023/09/01 07:57:42;;;;;;;3.83;3.63;;;;;;;;;;4993115;28;20462;-73
2023/09/01 08:00:08;;;;;;;9.47;8.83;;;;;;;;;;4994673;28;20524;-73
2023/09/01 08:02:34;;;;;;;2.57;2.53;;;;;;;;;;4992639;28;20523;-72
2023/09/01 08:05:01;;;;;;;1.80;1.80;;;;;;;;;;4990203;28;21409;-73
2023/09/01 08:07:27;;;;;;;2.10;2.10;;;;;;;;;;4986437;28;20477;-72
2023/09/01 08:09:53;;;;;;;2.10;2.10;;;;;;;;;;4984494;28;20455;-72
2023/09/01 08:12:19;;;;;;;2.00;2.00;;;;;;;;;;4997124;28;20479;-72
2023/09/01 08:14:45;;;;;;;2.00;1.90;;;;;;;;;;4999458;28;20447;-72
2023/09/01 08:17:11;;;;;;;2.23;2.13;;;;;;;;;;4995771;28;20968;-72
2023/09/01 08:19:40;;;;;;;2.10;1.90;;;;;;;;;;4989051;28;20927;-72
2023/09/01 08:22:06;;;;;;;1.50;1.50;;;;;;;;;;4992750;28;20904;-70
2023/09/01 08:24:32;;;;;;;1.73;1.73;;;;;;;;;;4997212;28;20466;-71
2023/09/01 08:26:58;;;;;;;11.30;10.23;;;;;;;;;;5001470;28;20766;-75
2023/09/01 08:29:24;;;;;;;2.57;2.37;;;;;;;;;;4997820;28;20439;-71
2023/09/01 08:31:50;;;;;;;2.40;2.30;;;;;;;;;;5001442;28;20457;-71
2023/09/01 08:34:17;;;;;;;2.13;2.03;;;;;;;;;;4999908;28;20982;-72
2023/09/01 08:36:43;;;;;;;2.30;2.20;;;;;;;;;;4998260;28;20924;-71
2023/09/01 08:39:09;;;;;;;2.10;2.00;;;;;;;;;;4996866;28;20942;-72
2023/09/01 08:41:35;;;;;;;2.20;2.10;;;;;;;;;;4996853;28;20477;-72
2023/09/01 08:44:06;;;;;;;2.07;2.00;;;;;;;;;;5004764;28;20454;-72
2023/09/01 08:46:33;;;;;;;2.30;2.30;;;;;;;;;;5006529;28;20489;-73
2023/09/01 08:49:00;;;;;;;2.40;2.40;;;;;;;;;;5005707;28;20518;-71
2023/09/01 08:51:26;;;;;;;2.53;2.43;;;;;;;;;;5001368;28;20566;-72
2023/09/01 08:53:52;;;;;;;3.97;3.87;;;;;;;;;;5001230;28;20448;-73
2023/09/01 08:56:18;;;;;;;4.00;3.80;;;;;;;;;;4999583;28;20494;-73
2023/09/01 08:58:46;;;;;;;2.60;2.40;;;;;;;;;;4993823;28;20554;-72
2023/09/01 09:01:13;;;;;;;3.07;2.87;;;;;;;;;;4996870;28;20596;-73
2023/09/01 09:03:40;;;;;;;2.63;2.63;;;;;;;;;;4999453;28;20962;-72
2023/09/01 09:06:06;;;;;;;2.87;2.53;;;;;;;;;;4998424;28;21293;-74
2023/09/01 09:08:34;;;;;;;1.63;1.60;;;;;;;;;;4998091;28;20914;-73
2023/09/01 09:11:00;;;;;;;2.07;2.07;;;;;;;;;;4999782;28;20482;-72
2023/09/01 09:13:31;;;;;;;1.93;1.70;;;;;;;;;;5004212;28;20958;-73
2023/09/01 09:16:06;;;;;;;4.20;2.67;;;;;;;;;;5001355;28;20523;-72
2023/09/01 09:18:32;;;;;;;3.27;2.50;;;;;;;;;;5003088;28;20434;-71
2023/09/01 09:20:58;;;;;;;2.83;2.60;;;;;;;;;;5005278;28;20850;-73
2023/09/01 09:23:42;;;;;;;2.73;2.63;;;;;;;;;;4999399;28;20447;-72
2023/09/01 09:26:08;;;;;;;2.60;2.50;;;;;;;;;;5004052;28;20469;-72
2023/09/01 09:28:34;;;;;;;2.50;2.50;;;;;;;;;;5003724;28;20441;-72
2023/09/01 09:31:00;;;;;;;2.90;2.70;;;;;;;;;;4997834;28;21163;-73
2023/09/01 09:33:27;;;;;;;2.70;2.70;;;;;;;;;;4998219;28;21590;-71
2023/09/01 09:35:53;;;;;;;4.10;3.80;;;;;;;;;;5000729;28;20455;-72
2023/09/01 09:38:19;;;;;;;3.03;3.00;;;;;;;;;;4994035;28;20466;-74
2023/09/01 09:40:58;;;;;;;3.83;3.50;;;;;;;;;;4994220;28;20889;-73
2023/09/01 09:43:24;;;;;;;3.90;3.70;;;;;;;;;;5002346;28;20459;-73
2023/09/01 09:45:53;;;;;;;2.93;2.93;;;;;;;;;;4999769;28;20877;-78
2023/09/01 09:48:19;;;;;;;7.30;6.80;;;;;;;;;;4999435;28;20502;-74
2023/09/01 09:50:46;;;;;;;4.13;3.93;;;;;;;;;;5000614;28;20478;-74
2023/09/01 09:53:16;;;;;;;3.97;3.63;;;;;;;;;;4995897;28;20458;-72
2023/09/01 09:55:46;;;;;;;4.57;4.17;;;;;;;;;;4998688;28;20546;-73
2023/09/01 09:58:12;;;;;;;4.10;3.60;;;;;;;;;;4997352;28;20443;-73
2023/09/01 10:00:48;;;;;;;3.67;3.33;;;;;;;;;;4997182;28;20458;-72
2023/09/01 10:03:14;;;;;;;3.40;3.13;;;;;;;;;;4998270;28;20448;-73
2023/09/01 10:05:41;;;;;;;3.23;3.03;;;;;;;;;;4996988;28;20864;-73
2023/09/01 10:08:08;;;;;;;3.23;3.00;;;;;;;;;;4981321;28;21028;-71
2023/09/01 10:10:34;;;;;;;4.00;3.90;;;;;;;;;;4999528;28;20444;-73
2023/09/01 10:13:06;;;;;;;3.07;2.83;;;;;;;;;;4995496;28;20462;-72
2023/09/01 10:15:32;;;;;;;3.50;3.40;;;;;;;;;;4997053;28;20530;-71
2023/09/01 10:18:01;;;;;;;1.93;1.83;;;;;;;;;;5001788;28;20458;-72
2023/09/01 10:20:28;;;;;;;2.90;2.80;;;;;;;;;;5002157;28;20451;-72
2023/09/01 10:22:54;;;;;;;2.47;2.37;;;;;;;;;;4998541;28;20439;-71
2023/09/01 10:25:21;;;;;;;2.20;2.07;;;;;;;;;;4999396;28;20474;-72
2023/09/01 10:28:00;;;;;;;2.40;2.33;;;;;;;;;;4991374;28;20720;-75
2023/09/01 10:30:27;;;;;;;1.83;1.83;;;;;;;;;;4996470;28;20447;-72
2023/09/01 10:33:23;;;;;;;2.93;2.40;;;;;;;;;;4996865;28;20487;-73
2023/09/01 10:35:53;;;;;;;2.43;2.40;;;;;;;;;;4981128;28;20470;-72
2023/09/01 10:38:20;;;;;;;2.80;2.70;;;;;;;;;;4996736;28;20431;-72
2023/09/01 10:40:48;;;;;;;2.70;2.50;;;;;;;;;;4995070;28;20518;-72
2023/09/01 10:43:34;;;;;;;2.93;2.20;;;;;;;;;;5010896;28;20838;-72
2023/09/01 10:46:15;;;;;;;2.47;2.37;;;;;;;;;;4994720;28;20440;-73
2023/09/01 10:48:47;;;;;;;3.10;1.93;;;;;;;;;;4995165;28;20451;-71
2023/09/01 10:51:20;;;;;;;3.27;2.97;;;;;;;;;;4997037;28;20458;-72
2023/09/01 10:53:46;;;;;;;2.60;2.50;;;;;;;;;;4993864;28;20428;-72
2023/09/01 10:56:14;;;;;;;3.77;3.47;;;;;;;;;;4994366;28;20458;-72
2023/09/01 10:58:45;;;;;;;6.13;3.83;;;;;;;;;;4999655;28;20484;-75
2023/09/01 11:01:31;;;;;;;2.37;2.27;;;;;;;;;;4994626;28;21017;-72
2023/09/01 11:04:17;;;;;;;1.80;1.80;;;;;;;;;;5000133;28;20470;-72
2023/09/01 11:06:58;;;;;;;2.90;2.60;;;;;;;;;;4998851;28;20517;-73
2023/09/01 11:09:33;;;;;;;4.23;2.27;;;;;;;;;;5006124;28;21092;-73
2023/09/01 11:12:02;;;;;;;2.77;2.67;;;;;;;;;;4997255;28;20573;-73
2023/09/01 11:14:28;;;;;;;2.50;2.40;;;;;;;;;;4996213;28;20473;-73
2023/09/01 11:16:54;;;;;;;2.80;2.60;;;;;;;;;;5001410;28;20444;-73
2023/09/01 11:19:20;;;;;;;2.53;2.40;;;;;;;;;;4995946;28;21057;-73
2023/09/01 11:21:46;;;;;;;2.03;1.93;;;;;;;;;;4994652;28;20997;-72
2023/09/01 11:24:13;;;;;;;3.37;2.10;;;;;;;;;;4996885;28;20451;-73
2023/09/01 11:26:39;;;;;;;2.10;2.00;;;;;;;;;;4993346;28;20443;-75
2023/09/01 11:29:11;;;;;;;2.50;2.50;;;;;;;;;;4994826;28;20949;-77
2023/09/01 11:31:38;;;;;;;1.67;1.67;;;;;;;;;;4996074;28;20475;-74
2023/09/01 11:34:04;;;;;;;2.47;2.33;;;;;;;;;;4999964;28;20456;-74
2023/09/01 11:36:30;;;;;;;2.00;1.90;;;;;;;;;;4994293;28;20459;-71
2023/09/01 11:38:56;;;;;;;1.90;1.90;;;;;;;;;;4996743;28;20509;-73
2023/09/01 11:41:22;;;;;;;2.23;2.10;;;;;;;;;;4995303;28;20935;-75
2023/09/01 11:43:48;;;;;;;3.43;3.30;;;;;;;;;;4997830;28;20531;-76
2023/09/01 11:46:15;;;;;;;2.37;2.17;;;;;;;;;;4985947;28;20501;-74
2023/09/01 11:48:41;;;;;;;2.17;2.17;;;;;;;;;;4991114;28;20513;-72
2023/09/01 11:51:10;;;;;;;3.00;3.00;;;;;;;;;;4994507;28;20471;-72
2023/09/01 11:53:36;;;;;;;2.83;2.80;;;;;;;;;;4995235;28;20423;-73
2023/09/01 11:56:17;;;;;;;3.13;2.90;;;;;;;;;;4990757;28;20451;-72
2023/09/01 11:58:43;;;;;;;2.40;2.40;;;;;;;;;;4996119;28;20461;-72
2023/09/01 12:01:09;;;;;;;2.63;2.47;;;;;;;;;;4997997;28;20427;-73
2023/09/01 12:03:37;;;;;;;3.50;3.30;;;;;;;;;;5001505;28;20496;-75
2023/09/01 12:06:13;;;;;;;2.67;2.67;;;;;;;;;;5002031;28;21311;-73
2023/09/01 12:08:39;;;;;;;2.80;2.60;;;;;;;;;;4996016;28;20522;-72
2023/09/01 12:11:06;;;;;;;3.10;2.80;;;;;;;;;;5003731;28;21129;-72
2023/09/01 12:13:32;;;;;;;3.17;3.07;;;;;;;;;;4999332;28;20996;-72
2023/09/01 12:16:02;;;;;;;2.80;2.80;;;;;;;;;;5002005;28;20435;-72
2023/09/01 12:18:35;;;;;;;2.60;2.50;;;;;;;;;;5001543;28;20805;-72
2023/09/01 12:21:02;;;;;;;2.30;2.30;;;;;;;;;;4998223;28;20818;-74
2023/09/01 12:23:29;;;;;;;2.30;2.30;;;;;;;;;;4998398;28;20605;-73
2023/09/01 12:25:55;;;;;;;2.70;2.70;;;;;;;;;;5002696;28;20498;-74
2023/09/01 12:28:22;;;;;;;3.17;3.07;;;;;;;;;;5001908;28;20534;-75
2023/09/01 12:30:48;;;;;;;2.77;2.67;;;;;;;;;;5000536;28;20883;-74
2023/09/01 12:33:14;;;;;;;2.77;2.77;;;;;;;;;;4997393;28;20525;-73
2023/09/01 12:35:41;;;;;;;3.00;3.00;;;;;;;;;;5003943;28;20583;-73
2023/09/01 12:38:07;;;;;;;3.53;3.47;;;;;;;;;;5005992;28;20434;-72
2023/09/01 12:40:34;;;;;;;2.70;2.60;;;;;;;;;;5001188;28;20450;-73
2023/09/01 12:43:00;;;;;;;3.77;3.40;;;;;;;;;;5006401;28;20525;-75
2023/09/01 12:45:26;;;;;;;5.27;5.07;;;;;;;;;;4996534;28;20460;-72
2023/09/01 12:47:52;;;;;;;53.93;48.83;;;;;;;;;;4998469;28;20912;-72
2023/09/01 12:50:18;;;;;;;3.53;3.53;;;;;;;;;;4993559;28;20439;-72
2023/09/01 12:52:44;;;;;;;2.70;2.60;;;;;;;;;;5003449;28;20978;-71
2023/09/01 12:55:10;;;;;;;2.70;2.70;;;;;;;;;;4995987;28;20446;-73
2023/09/01 12:57:36;;;;;;;3.90;3.73;;;;;;;;;;4999464;28;20455;-73
2023/09/01 13:00:02;;;;;;;2.70;2.70;;;;;;;;;;4997128;28;20565;-73
2023/09/01 13:02:28;;;;;;;3.13;3.13;;;;;;;;;;4999741;28;20434;-72
2023/09/01 13:04:57;;;;;;;4.70;4.60;;;;;;;;;;5002981;28;20672;-73
2023/09/01 13:07:23;;;;;;;5.13;5.00;;;;;;;;;;4993718;28;20500;-73
2023/09/01 13:09:49;;;;;;;3.27;3.17;;;;;;;;;;5001267;28;20451;-72
2023/09/01 13:12:16;;;;;;;2.87;2.87;;;;;;;;;;5000059;28;20499;-72
2023/09/01 13:14:42;;;;;;;3.00;3.00;;;;;;;;;;4998630;28;20444;-73
2023/09/01 13:17:08;;;;;;;2.17;2.17;;;;;;;;;;4993439;28;20664;-72
2023/09/01 13:19:34;;;;;;;2.10;2.10;;;;;;;;;;4998264;28;20909;-72
2023/09/01 13:22:01;;;;;;;2.53;2.53;;;;;;;;;;4995740;28;20526;-70
2023/09/01 13:24:27;;;;;;;2.67;2.57;;;;;;;;;;5000924;28;20558;-72
2023/09/01 13:26:53;;;;;;;2.93;2.83;;;;;;;;;;5000951;28;20543;-73
2023/09/01 13:29:22;;;;;;;3.03;3.03;;;;;;;;;;5000310;28;20454;-74
2023/09/01 13:31:48;;;;;;;2.50;2.40;;;;;;;;;;5000837;28;20474;-72
2023/09/01 13:34:14;;;;;;;2.40;2.40;;;;;;;;;;5000876;28;20435;-72
2023/09/01 13:36:40;;;;;;;3.00;3.00;;;;;;;;;;5000143;28;20915;-72
2023/09/01 13:39:06;;;;;;;3.47;3.30;;;;;;;;;;5000321;28;20447;-72
2023/09/01 13:41:32;;;;;;;3.10;3.00;;;;;;;;;;4994260;28;21303;-73
2023/09/01 13:43:58;;;;;;;2.57;2.57;;;;;;;;;;4990991;28;20440;-72
2023/09/01 13:46:25;;;;;;;2.37;2.27;;;;;;;;;;4997090;28;20462;-72
2023/09/01 13:48:55;;;;;;;2.40;2.40;;;;;;;;;;4994565;28;20452;-73
2023/09/01 13:51:28;;;;;;;2.47;2.37;;;;;;;;;;4995894;28;20478;-72
2023/09/01 13:53:55;;;;;;;3.50;3.30;;;;;;;;;;4992110;28;20436;-72
2023/09/01 13:56:21;;;;;;;4.60;4.40;;;;;;;;;;4995553;28;20462;-70
2023/09/01 13:58:47;;;;;;;2.80;2.70;;;;;;;;;;4999646;28;20826;-71
2023/09/01 14:01:14;;;;;;;3.00;2.90;;;;;;;;;;4997823;28;20438;-72
2023/09/01 14:03:40;;;;;;;2.27;2.27;;;;;;;;;;4996631;28;20447;-71
2023/09/01 14:06:07;;;;;;;3.80;2.90;;;;;;;;;;5001144;28;20819;-72
2023/09/01 14:08:33;;;;;;;4.57;2.67;;;;;;;;;;4999062;28;20449;-73
2023/09/01 14:10:59;;;;;;;2.03;2.03;;;;;;;;;;4997905;28;20479;-71
2023/09/01 14:13:26;;;;;;;3.67;3.47;;;;;;;;;;5000898;28;21154;-72
2023/09/01 14:15:53;;;;;;;3.17;3.07;;;;;;;;;;4999885;28;20426;-71
2023/09/01 14:18:19;;;;;;;3.40;3.20;;;;;;;;;;4994562;28;20456;-70
2023/09/01 14:20:49;;;;;;;2.30;2.30;;;;;;;;;;4993363;28;20487;-70
2023/09/01 14:23:15;;;;;;;2.57;2.57;;;;;;;;;;4987769;28;20783;-71
2023/09/01 14:25:41;;;;;;;2.23;2.20;;;;;;;;;;5012271;28;20467;-72
2023/09/01 14:28:07;;;;;;;2.30;2.30;;;;;;;;;;4994296;28;20509;-72
2023/09/01 14:30:36;;;;;;;2.40;2.40;;;;;;;;;;4991699;28;20810;-72
2023/09/01 14:33:02;;;;;;;3.10;3.10;;;;;;;;;;4990144;28;20882;-72
2023/09/01 14:35:28;;;;;;;3.33;3.23;;;;;;;;;;4995552;28;20443;-71
2023/09/01 14:37:54;;;;;;;4.00;3.90;;;;;;;;;;4993406;28;20436;-72
2023/09/01 14:40:20;;;;;;;5.53;5.30;;;;;;;;;;5003705;28;20997;-71
2023/09/01 14:42:46;;;;;;;4.70;4.60;;;;;;;;;;4995175;28;20443;-72
2023/09/01 14:45:12;;;;;;;5.47;5.37;;;;;;;;;;5000894;28;20856;-71